createdAt,value
2022-10-28T00:00:33.563Z,86.49
2022-10-28T00:01:33.619Z,85.98
2022-10-28T00:02:33.707Z,85.78
2022-10-28T00:03:33.529Z,85.58
2022-10-28T00:04:33.532Z,85.78
2022-10-28T00:05:33.526Z,85.68
2022-10-28T00:06:33.548Z,85.68
2022-10-28T00:07:33.504Z,85.48
2022-10-28T00:08:33.478Z,85.48
2022-10-28T00:09:33.470Z,85.24
2022-10-28T00:10:33.525Z,85.34
2022-10-28T00:11:33.461Z,85.14
2022-10-28T00:12:33.501Z,85.03
2022-10-28T00:13:33.422Z,85.14
2022-10-28T00:14:33.413Z,84.94
2022-10-28T00:15:33.401Z,84.94
2022-10-28T00:16:33.410Z,85.03
2022-10-28T00:17:33.380Z,85.14
2022-10-28T00:18:33.440Z,84.94
2022-10-28T00:19:33.376Z,84.83
2022-10-28T00:20:33.504Z,84.94
2022-10-28T00:21:33.344Z,84.83
2022-10-28T00:22:33.419Z,84.63
2022-10-28T00:23:33.317Z,84.74
2022-10-28T00:24:33.294Z,84.63
2022-10-28T00:25:33.294Z,84.83
2022-10-28T00:26:33.285Z,84.94
2022-10-28T00:27:33.267Z,84.74
2022-10-28T00:28:33.295Z,84.83
2022-10-28T00:29:33.252Z,84.94
2022-10-28T00:30:33.574Z,84.74
2022-10-28T00:31:33.253Z,84.83
2022-10-28T00:32:33.317Z,84.74
2022-10-28T00:33:33.204Z,84.83
2022-10-28T00:34:33.237Z,84.83
2022-10-28T00:35:33.179Z,84.63
2022-10-28T00:36:33.220Z,84.63
2022-10-28T00:37:33.181Z,84.63
2022-10-28T00:38:33.211Z,84.74
2022-10-28T00:39:33.155Z,84.53
2022-10-28T00:40:33.126Z,84.74
2022-10-28T00:41:33.157Z,84.83
2022-10-28T00:42:33.109Z,84.53
2022-10-28T00:43:33.104Z,84.74
2022-10-28T00:44:33.081Z,84.94
2022-10-28T00:45:33.071Z,84.43
2022-10-28T00:46:33.072Z,84.33
2022-10-28T00:47:33.051Z,84.13
2022-10-28T00:48:33.043Z,84.33
2022-10-28T00:49:33.033Z,84.13
2022-10-28T00:50:33.100Z,83.93
2022-10-28T00:51:33.015Z,83.93
2022-10-28T00:52:33.008Z,84.03
2022-10-28T00:53:32.992Z,84.13
2022-10-28T00:54:32.971Z,84.13
2022-10-28T00:55:32.968Z,84.23
2022-10-28T00:56:32.977Z,84.43
2022-10-28T00:57:32.944Z,84.13
2022-10-28T00:58:32.939Z,84.43
2022-10-28T00:59:32.934Z,84.53
2022-10-28T01:00:32.956Z,84.47
2022-10-28T01:01:32.996Z,84.47
2022-10-28T01:02:32.992Z,84.67
2022-10-28T01:03:32.875Z,84.77
2022-10-28T01:04:32.997Z,84.67
2022-10-28T01:05:53.867Z,84.67
2022-10-28T01:06:32.856Z,84.88
2022-10-28T01:07:32.837Z,84.97
2022-10-28T01:08:32.829Z,84.77
2022-10-28T01:09:32.827Z,84.77
2022-10-28T01:10:32.838Z,84.37
2022-10-28T01:11:32.812Z,84.27
2022-10-28T01:12:32.897Z,84.57
2022-10-28T01:13:32.769Z,84.57
2022-10-28T01:14:32.838Z,84.37
2022-10-28T01:15:32.746Z,84.67
2022-10-28T01:16:32.768Z,84.57
2022-10-28T01:17:32.751Z,84.88
2022-10-28T01:18:32.712Z,84.88
2022-10-28T01:19:32.710Z,83.97
2022-10-28T01:20:36.180Z,84.37
2022-10-28T01:21:33.690Z,84.47
2022-10-28T01:22:32.715Z,84.37
2022-10-28T01:23:32.663Z,84.67
2022-10-28T01:24:32.877Z,85.08
2022-10-28T01:25:32.643Z,85.08
2022-10-28T01:26:32.775Z,85.28
2022-10-28T01:27:32.624Z,85.58
2022-10-28T01:28:32.605Z,85.78
2022-10-28T01:29:32.597Z,85.38
2022-10-28T01:30:32.591Z,85.52
2022-10-28T01:31:32.586Z,85.42
2022-10-28T01:32:32.685Z,85.62
2022-10-28T01:33:32.554Z,85.62
2022-10-28T01:34:32.546Z,85.62
2022-10-28T01:35:32.542Z,85.72
2022-10-28T01:36:32.536Z,85.62
2022-10-28T01:37:32.516Z,85.72
2022-10-28T01:38:32.557Z,85.72
2022-10-28T01:39:32.485Z,85.62
2022-10-28T01:40:32.477Z,85.31
2022-10-28T01:41:32.467Z,85.31
2022-10-28T01:42:32.546Z,85.11
2022-10-28T01:43:32.446Z,84.81
2022-10-28T01:44:32.457Z,84.81
2022-10-28T01:45:32.415Z,84.27
2022-10-28T01:46:32.477Z,84.07
2022-10-28T01:47:32.401Z,84.27
2022-10-28T01:48:32.430Z,83.97
2022-10-28T01:49:32.374Z,83.87
2022-10-28T01:50:32.370Z,83.87
2022-10-28T01:51:32.361Z,83.87
2022-10-28T01:52:32.350Z,83.97
2022-10-28T01:53:32.331Z,84.47
2022-10-28T01:54:32.332Z,84.17
2022-10-28T01:55:32.312Z,84.37
2022-10-28T01:56:32.492Z,84.17
2022-10-28T01:57:32.282Z,84.47
2022-10-28T01:58:32.434Z,84.27
2022-10-28T01:59:32.263Z,84.37
2022-10-28T02:00:32.302Z,84.27
2022-10-28T02:01:32.449Z,84.27
2022-10-28T02:02:32.236Z,84.27
2022-10-28T02:03:32.214Z,84.07
2022-10-28T02:04:32.288Z,84.17
2022-10-28T02:05:32.196Z,84.67
2022-10-28T02:06:32.224Z,85.31
2022-10-28T02:07:32.174Z,85.52
2022-10-28T02:08:32.164Z,84.81
2022-10-28T02:09:32.146Z,84.41
2022-10-28T02:10:32.157Z,84.61
2022-10-28T02:11:32.156Z,84.51
2022-10-28T02:12:32.127Z,84.61
2022-10-28T02:13:32.109Z,84.91
2022-10-28T02:14:32.107Z,84.51
2022-10-28T02:15:32.079Z,84.51
2022-10-28T02:16:32.101Z,84.61
2022-10-28T02:17:32.120Z,85.02
2022-10-28T02:18:32.058Z,85.22
2022-10-28T02:19:32.049Z,85.11
2022-10-28T02:20:32.037Z,85.11
2022-10-28T02:21:32.030Z,85.22
2022-10-28T02:22:32.009Z,85.02
2022-10-28T02:23:32.009Z,85.11
2022-10-28T02:24:32.205Z,85.52
2022-10-28T02:25:31.980Z,85.66
2022-10-28T02:26:31.993Z,85.76
2022-10-28T02:27:31.954Z,85.76
2022-10-28T02:28:31.955Z,86.07
2022-10-28T02:29:31.950Z,86.07
2022-10-28T02:30:32.093Z,85.56
2022-10-28T02:31:31.960Z,85.56
2022-10-28T02:32:32.034Z,85.76
2022-10-28T02:33:31.888Z,85.86
2022-10-28T02:34:31.883Z,85.96
2022-10-28T02:35:31.864Z,86.21
2022-10-28T02:36:31.875Z,86.30
2022-10-28T02:37:31.853Z,86.30
2022-10-28T02:38:31.840Z,86.51
2022-10-28T02:39:31.835Z,86.61
2022-10-28T02:40:31.816Z,86.61
2022-10-28T02:41:31.829Z,86.61
2022-10-28T02:42:31.785Z,86.61
2022-10-28T02:43:31.776Z,86.51
2022-10-28T02:44:31.769Z,86.21
2022-10-28T02:45:31.761Z,86.21
2022-10-28T02:46:31.790Z,86.07
2022-10-28T02:47:31.739Z,85.96
2022-10-28T02:48:31.728Z,85.96
2022-10-28T02:49:31.709Z,86.07
2022-10-28T02:50:31.847Z,86.07
2022-10-28T02:51:31.702Z,85.96
2022-10-28T02:52:31.687Z,86.27
2022-10-28T02:53:31.663Z,86.67
2022-10-28T02:54:31.660Z,86.07
2022-10-28T02:55:31.649Z,85.96
2022-10-28T02:56:31.791Z,85.76
2022-10-28T02:57:31.620Z,85.76
2022-10-28T02:58:31.620Z,85.86
2022-10-28T02:59:31.614Z,85.96
2022-10-28T03:00:31.600Z,85.96
2022-10-28T03:01:31.707Z,85.96
2022-10-28T03:02:31.572Z,85.46
2022-10-28T03:03:31.563Z,85.56
2022-10-28T03:04:31.558Z,85.76
2022-10-28T03:05:31.546Z,85.76
2022-10-28T03:06:31.739Z,86.16
2022-10-28T03:07:31.514Z,86.36
2022-10-28T03:08:31.493Z,86.36
2022-10-28T03:09:31.492Z,86.16
2022-10-28T03:10:31.710Z,86.27
2022-10-28T03:11:31.503Z,86.16
2022-10-28T03:12:31.635Z,86.27
2022-10-28T03:13:31.465Z,85.96
2022-10-28T03:14:31.437Z,85.96
2022-10-28T03:15:31.425Z,85.76
2022-10-28T03:16:31.426Z,85.56
2022-10-28T03:17:31.405Z,85.16
2022-10-28T03:18:31.475Z,85.25
2022-10-28T03:19:31.401Z,84.95
2022-10-28T03:20:31.436Z,84.51
2022-10-28T03:21:31.368Z,84.21
2022-10-28T03:22:31.351Z,83.91
2022-10-28T03:23:31.340Z,83.91
2022-10-28T03:24:31.317Z,83.40
2022-10-28T03:25:31.328Z,83.60
2022-10-28T03:26:31.296Z,83.50
2022-10-28T03:27:31.289Z,83.70
2022-10-28T03:28:31.484Z,83.70
2022-10-28T03:29:31.276Z,83.60
2022-10-28T03:30:31.324Z,83.70
2022-10-28T03:31:31.250Z,83.80
2022-10-28T03:32:31.239Z,83.80
2022-10-28T03:33:31.222Z,83.60
2022-10-28T03:34:31.390Z,83.70
2022-10-28T03:35:31.224Z,83.80
2022-10-28T03:36:31.301Z,83.80
2022-10-28T03:37:31.183Z,83.60
2022-10-28T03:38:31.172Z,83.60
2022-10-28T03:39:31.153Z,83.60
2022-10-28T03:40:31.145Z,83.70
2022-10-28T03:41:31.154Z,83.40
2022-10-28T03:42:31.113Z,83.36
2022-10-28T03:43:31.114Z,83.50
2022-10-28T03:44:31.095Z,83.70
2022-10-28T03:45:31.088Z,83.80
2022-10-28T03:46:33.601Z,83.91
2022-10-28T03:47:31.075Z,83.91
2022-10-28T03:48:31.046Z,83.91
2022-10-28T03:49:31.057Z,84.01
2022-10-28T03:50:31.030Z,84.01
2022-10-28T03:51:31.041Z,84.01
2022-10-28T03:52:31.027Z,84.21
2022-10-28T03:53:31.467Z,84.21
2022-10-28T03:54:30.984Z,84.41
2022-10-28T03:55:30.986Z,84.55
2022-10-28T03:56:31.130Z,84.75
2022-10-28T03:57:30.958Z,84.75
2022-10-28T03:58:30.991Z,84.95
2022-10-28T03:59:30.938Z,85.16
2022-10-28T04:00:30.921Z,85.05
2022-10-28T04:01:31.084Z,85.05
2022-10-28T04:02:31.090Z,85.30
2022-10-28T04:03:30.887Z,85.30
2022-10-28T04:04:31.042Z,85.40
2022-10-28T04:05:30.873Z,85.30
2022-10-28T04:06:31.001Z,84.95
2022-10-28T04:07:30.851Z,84.95
2022-10-28T04:08:30.830Z,85.05
2022-10-28T04:09:30.821Z,85.30
2022-10-28T04:10:30.972Z,85.30
2022-10-28T04:11:30.823Z,85.30
2022-10-28T04:12:30.910Z,85.50
2022-10-28T04:13:30.781Z,85.60
2022-10-28T04:14:30.932Z,85.70
2022-10-28T04:15:30.764Z,85.90
2022-10-28T04:16:30.865Z,85.80
2022-10-28T04:17:30.734Z,85.60
2022-10-28T04:18:30.719Z,85.60
2022-10-28T04:19:30.715Z,85.80
2022-10-28T04:20:30.722Z,85.70
2022-10-28T04:21:30.775Z,85.60
2022-10-28T04:22:30.815Z,85.50
2022-10-28T04:23:30.666Z,85.60
2022-10-28T04:24:30.647Z,85.50
2022-10-28T04:25:30.669Z,85.80
2022-10-28T04:26:30.636Z,85.90
2022-10-28T04:27:30.629Z,86.00
2022-10-28T04:28:30.607Z,86.21
2022-10-28T04:29:30.655Z,86.51
2022-10-28T04:30:30.588Z,86.51
2022-10-28T04:31:30.598Z,86.61
2022-10-28T04:32:30.568Z,86.61
2022-10-28T04:33:30.548Z,86.61
2022-10-28T04:34:30.560Z,86.61
2022-10-28T04:35:30.546Z,86.51
2022-10-28T04:36:30.519Z,86.51
2022-10-28T04:37:30.520Z,86.65
2022-10-28T04:38:30.504Z,86.75
2022-10-28T04:39:30.479Z,86.75
2022-10-28T04:40:30.490Z,86.85
2022-10-28T04:41:30.461Z,86.55
2022-10-28T04:42:30.452Z,86.55
2022-10-28T04:43:30.439Z,86.55
2022-10-28T04:44:30.431Z,86.30
2022-10-28T04:45:30.442Z,86.10
2022-10-28T04:46:30.413Z,86.21
2022-10-28T04:47:30.412Z,86.10
2022-10-28T04:48:30.385Z,86.15
2022-10-28T04:49:31.170Z,86.35
2022-10-28T04:50:30.392Z,86.45
2022-10-28T04:51:30.352Z,86.65
2022-10-28T04:52:30.345Z,86.75
2022-10-28T04:53:30.335Z,86.55
2022-10-28T04:54:30.347Z,86.55
2022-10-28T04:55:30.318Z,86.35
2022-10-28T04:56:30.303Z,86.45
2022-10-28T04:57:30.293Z,86.45
2022-10-28T04:58:30.278Z,86.45
2022-10-28T04:59:30.266Z,86.45
2022-10-28T05:00:30.264Z,86.35
2022-10-28T05:01:30.358Z,86.45
2022-10-28T05:02:30.279Z,86.45
2022-10-28T05:03:30.217Z,86.45
2022-10-28T05:04:30.216Z,86.45
2022-10-28T05:05:30.210Z,86.04
2022-10-28T05:06:30.187Z,86.04
2022-10-28T05:07:30.178Z,86.15
2022-10-28T05:08:30.168Z,86.45
2022-10-28T05:09:30.149Z,86.45
2022-10-28T05:10:30.149Z,86.55
2022-10-28T05:11:30.138Z,86.35
2022-10-28T05:12:30.123Z,86.35
2022-10-28T05:13:30.110Z,86.35
2022-10-28T05:14:30.106Z,86.35
2022-10-28T05:15:30.089Z,86.35
2022-10-28T05:16:30.076Z,86.55
2022-10-28T05:17:30.070Z,86.35
2022-10-28T05:18:30.059Z,86.45
2022-10-28T05:19:30.039Z,86.55
2022-10-28T05:20:30.040Z,86.45
2022-10-28T05:21:30.012Z,86.45
2022-10-28T05:22:30.024Z,86.35
2022-10-28T05:23:31.021Z,86.35
2022-10-28T05:24:29.983Z,86.35
2022-10-28T05:25:29.983Z,86.45
2022-10-28T05:26:29.974Z,86.45
2022-10-28T05:27:29.953Z,86.35
2022-10-28T05:28:29.946Z,86.35
2022-10-28T05:29:33.335Z,86.45
2022-10-28T05:30:29.932Z,86.45
2022-10-28T05:31:29.917Z,86.25
2022-10-28T05:32:29.896Z,86.35
2022-10-28T05:33:29.874Z,86.25
2022-10-28T05:34:29.881Z,86.04
2022-10-28T05:35:29.856Z,85.90
2022-10-28T05:36:29.864Z,85.80
2022-10-28T05:37:29.839Z,85.70
2022-10-28T05:38:29.831Z,85.70
2022-10-28T05:39:29.816Z,85.70
2022-10-28T05:40:29.831Z,85.50
2022-10-28T05:41:29.818Z,85.30
2022-10-28T05:42:29.796Z,85.10
2022-10-28T05:43:29.779Z,85.10
2022-10-28T05:44:29.785Z,85.10
2022-10-28T05:46:29.760Z,85.10
2022-10-28T05:47:29.727Z,85.10
2022-10-28T05:48:29.716Z,84.99
2022-10-28T05:49:29.708Z,84.99
2022-10-28T05:50:29.698Z,84.99
2022-10-28T05:51:29.710Z,84.99
2022-10-28T05:52:29.671Z,84.89
2022-10-28T05:53:29.662Z,84.99
2022-10-28T05:54:29.654Z,85.19
2022-10-28T05:55:29.653Z,84.99
2022-10-28T05:56:29.643Z,84.89
2022-10-28T05:57:29.611Z,84.35
2022-10-28T05:58:29.617Z,84.15
2022-10-28T05:59:29.593Z,84.15
2022-10-28T06:00:29.583Z,84.35
2022-10-28T06:01:29.608Z,84.45
2022-10-28T06:02:29.574Z,84.65
2022-10-28T06:03:31.202Z,84.59
2022-10-28T06:04:29.543Z,84.45
2022-10-28T06:05:29.524Z,84.15
2022-10-28T06:06:29.526Z,84.25
2022-10-28T06:07:29.573Z,84.25
2022-10-28T06:08:29.503Z,84.35
2022-10-28T06:09:29.476Z,84.45
2022-10-28T06:10:29.475Z,84.55
2022-10-28T06:11:27.931Z,84.55
2022-10-28T06:12:27.982Z,84.45
2022-10-28T06:13:27.903Z,84.45
2022-10-28T06:14:27.894Z,84.65
2022-10-28T06:15:27.875Z,84.79
2022-10-28T06:16:27.893Z,84.65
2022-10-28T06:17:27.865Z,84.79
2022-10-28T06:18:27.856Z,84.69
2022-10-28T06:19:27.844Z,84.89
2022-10-28T06:20:27.842Z,84.55
2022-10-28T06:21:27.833Z,84.55
2022-10-28T06:22:27.813Z,84.55
2022-10-28T06:23:27.812Z,84.55
2022-10-28T06:24:27.795Z,84.25
2022-10-28T06:25:27.780Z,84.05
2022-10-28T06:26:27.781Z,83.95
2022-10-28T06:27:27.758Z,83.95
2022-10-28T06:28:27.755Z,83.74
2022-10-28T06:29:27.731Z,83.50
2022-10-28T06:30:27.734Z,83.50
2022-10-28T06:31:27.733Z,83.84
2022-10-28T06:32:27.715Z,83.40
2022-10-28T06:33:27.694Z,83.40
2022-10-28T06:34:27.703Z,83.50
2022-10-28T06:35:27.673Z,83.40
2022-10-28T06:36:27.679Z,83.30
2022-10-28T06:37:27.662Z,83.20
2022-10-28T06:38:27.652Z,83.00
2022-10-28T06:39:27.649Z,83.20
2022-10-28T06:40:27.629Z,83.30
2022-10-28T06:41:27.628Z,83.10
2022-10-28T06:42:27.609Z,83.10
2022-10-28T06:43:27.596Z,83.10
2022-10-28T06:44:27.588Z,83.00
2022-10-28T06:45:27.569Z,82.90
2022-10-28T06:46:27.585Z,82.59
2022-10-28T06:47:29.069Z,82.59
2022-10-28T06:48:29.077Z,82.70
2022-10-28T06:49:29.048Z,82.90
2022-10-28T06:50:29.040Z,82.70
2022-10-28T06:51:29.037Z,82.59
2022-10-28T06:52:29.022Z,82.70
2022-10-28T06:53:29.014Z,82.79
2022-10-28T06:54:29.007Z,82.79
2022-10-28T06:55:29.004Z,82.79
2022-10-28T06:56:29.008Z,82.70
2022-10-28T06:57:29.422Z,82.90
2022-10-28T06:58:28.967Z,82.70
2022-10-28T06:59:28.948Z,82.79
2022-10-28T07:00:28.987Z,82.50
2022-10-28T07:01:29.078Z,82.50
2022-10-28T07:02:29.038Z,82.50
2022-10-28T07:03:28.902Z,82.59
2022-10-28T07:04:28.906Z,82.59
2022-10-28T07:05:28.887Z,82.70
2022-10-28T07:06:28.898Z,82.70
2022-10-28T07:07:28.877Z,82.59
2022-10-28T07:08:28.871Z,82.50
2022-10-28T07:09:28.849Z,82.59
2022-10-28T07:10:28.842Z,82.50
2022-10-28T07:11:28.893Z,82.70
2022-10-28T07:12:28.865Z,82.79
2022-10-28T07:13:28.826Z,82.70
2022-10-28T07:14:28.807Z,82.25
2022-10-28T07:15:28.797Z,82.25
2022-10-28T07:16:28.797Z,81.85
2022-10-28T07:17:28.779Z,82.05
2022-10-28T07:18:28.760Z,81.85
2022-10-28T07:19:28.770Z,81.85
2022-10-28T07:20:28.823Z,81.85
2022-10-28T07:21:28.742Z,81.95
2022-10-28T07:22:28.804Z,81.85
2022-10-28T07:23:28.718Z,82.15
2022-10-28T07:24:28.706Z,82.15
2022-10-28T07:25:28.690Z,82.05
2022-10-28T07:26:28.699Z,82.15
2022-10-28T07:27:28.670Z,82.45
2022-10-28T07:28:28.799Z,82.56
2022-10-28T07:29:28.651Z,82.35
2022-10-28T07:30:28.642Z,82.25
2022-10-28T07:31:28.638Z,82.56
2022-10-28T07:32:28.614Z,82.90
2022-10-28T07:33:28.593Z,82.70
2022-10-28T07:34:28.593Z,82.79
2022-10-28T07:35:28.585Z,82.59
2022-10-28T07:36:28.576Z,82.59
2022-10-28T07:37:28.556Z,82.59
2022-10-28T07:38:28.546Z,82.25
2022-10-28T07:39:28.571Z,81.95
2022-10-28T07:40:28.527Z,82.15
2022-10-28T07:41:28.519Z,82.15
2022-10-28T07:42:28.503Z,82.15
2022-10-28T07:43:28.489Z,82.15
2022-10-28T07:44:28.477Z,82.15
2022-10-28T07:45:28.459Z,81.95
2022-10-28T07:46:28.470Z,82.25
2022-10-28T07:47:28.522Z,82.15
2022-10-28T07:48:28.430Z,81.75
2022-10-28T07:49:28.418Z,81.85
2022-10-28T07:50:28.409Z,81.85
2022-10-28T07:51:28.401Z,81.75
2022-10-28T07:52:28.389Z,81.65
2022-10-28T07:53:28.960Z,81.71
2022-10-28T07:54:28.359Z,81.91
2022-10-28T07:55:28.353Z,81.61
2022-10-28T07:56:28.353Z,81.21
2022-10-28T07:57:28.318Z,80.90
2022-10-28T07:58:28.307Z,80.90
2022-10-28T07:59:28.295Z,80.60
2022-10-28T08:00:28.288Z,80.46
2022-10-28T08:01:28.424Z,80.46
2022-10-28T08:02:28.262Z,80.06
2022-10-28T08:03:34.680Z,80.36
2022-10-28T08:04:29.233Z,80.46
2022-10-28T08:05:28.224Z,80.57
2022-10-28T08:06:28.238Z,80.77
2022-10-28T08:07:28.189Z,79.96
2022-10-28T08:08:28.183Z,80.26
2022-10-28T08:09:28.170Z,80.26
2022-10-28T08:10:28.151Z,80.26
2022-10-28T08:11:28.157Z,80.06
2022-10-28T08:12:28.136Z,79.96
2022-10-28T08:13:28.115Z,80.26
2022-10-28T08:14:28.106Z,79.82
2022-10-28T08:15:28.124Z,79.82
2022-10-28T08:16:28.085Z,79.82
2022-10-28T08:17:28.070Z,79.82
2022-10-28T08:18:28.048Z,80.02
2022-10-28T08:19:28.060Z,80.02
2022-10-28T08:20:28.048Z,79.92
2022-10-28T08:21:28.009Z,80.02
2022-10-28T08:22:28.123Z,80.02
2022-10-28T08:23:28.004Z,79.82
2022-10-28T08:24:27.993Z,80.63
2022-10-28T08:25:27.972Z,80.73
2022-10-28T08:26:28.019Z,79.72
2022-10-28T08:27:27.953Z,79.32
2022-10-28T08:28:27.939Z,79.38
2022-10-28T08:29:30.216Z,79.68
2022-10-28T08:30:29.027Z,79.58
2022-10-28T08:31:27.930Z,78.88
2022-10-28T08:32:27.917Z,78.88
2022-10-28T08:33:27.881Z,79.08
2022-10-28T08:34:27.901Z,79.18
2022-10-28T08:35:27.972Z,78.78
2022-10-28T08:36:27.850Z,78.98
2022-10-28T08:37:27.908Z,79.48
2022-10-28T08:38:27.852Z,79.08
2022-10-28T08:39:27.811Z,79.08
2022-10-28T08:40:27.823Z,78.58
2022-10-28T08:41:27.794Z,78.98
2022-10-28T08:42:27.801Z,78.47
2022-10-28T08:43:45.979Z,78.34
2022-10-28T08:44:28.772Z,78.14
2022-10-28T08:45:27.756Z,77.94
2022-10-28T08:46:27.746Z,78.03
2022-10-28T08:47:27.753Z,78.64
2022-10-28T08:48:27.729Z,77.94
2022-10-28T08:49:27.732Z,78.44
2022-10-28T08:50:27.722Z,78.03
2022-10-28T08:51:27.690Z,77.94
2022-10-28T08:52:27.710Z,77.80
2022-10-28T08:53:27.716Z,78.00
2022-10-28T08:54:27.659Z,77.59
2022-10-28T08:55:27.663Z,77.70
2022-10-28T08:56:27.652Z,77.59
2022-10-28T08:57:27.629Z,77.70
2022-10-28T08:58:27.629Z,77.50
2022-10-28T08:59:27.749Z,78.20
2022-10-28T09:00:27.618Z,78.20
2022-10-28T09:01:27.786Z,78.60
2022-10-28T09:02:27.874Z,78.20
2022-10-28T09:03:27.576Z,78.40
2022-10-28T09:04:27.644Z,78.30
2022-10-28T09:05:27.546Z,78.30
2022-10-28T09:06:27.525Z,78.30
2022-10-28T09:07:27.507Z,78.70
2022-10-28T09:08:27.506Z,77.90
2022-10-28T09:09:27.487Z,78.20
2022-10-28T09:10:27.544Z,78.30
2022-10-28T09:11:27.597Z,78.80
2022-10-28T09:12:27.459Z,78.36
2022-10-28T09:13:27.449Z,77.96
2022-10-28T09:14:27.439Z,77.56
2022-10-28T09:15:27.468Z,77.56
2022-10-28T09:16:27.419Z,77.06
2022-10-28T09:17:27.411Z,76.76
2022-10-28T09:18:27.399Z,76.96
2022-10-28T09:19:27.403Z,77.56
2022-10-28T09:20:27.403Z,76.82
2022-10-28T09:21:27.353Z,76.62
2022-10-28T09:22:27.371Z,76.72
2022-10-28T09:23:27.345Z,77.02
2022-10-28T09:24:27.325Z,76.82
2022-10-28T09:25:27.333Z,77.32
2022-10-28T09:26:27.307Z,76.82
2022-10-28T09:27:27.293Z,76.68
2022-10-28T09:28:27.299Z,76.58
2022-10-28T09:29:27.275Z,76.98
2022-10-28T09:30:27.268Z,76.58
2022-10-28T09:31:27.258Z,76.89
2022-10-28T09:32:27.255Z,76.89
2022-10-28T09:33:27.227Z,76.58
2022-10-28T09:34:27.237Z,76.95
2022-10-28T09:35:27.223Z,76.25
2022-10-28T09:36:27.199Z,76.54
2022-10-28T09:37:27.191Z,75.34
2022-10-28T09:38:27.189Z,75.84
2022-10-28T09:39:28.025Z,76.31
2022-10-28T09:40:27.183Z,76.01
2022-10-28T09:41:27.179Z,76.71
2022-10-28T09:42:27.208Z,76.71
2022-10-28T09:43:27.158Z,76.01
2022-10-28T09:44:27.115Z,76.71
2022-10-28T09:45:27.115Z,77.11
2022-10-28T09:46:27.151Z,77.51
2022-10-28T09:47:27.074Z,77.61
2022-10-28T09:48:27.068Z,76.01
2022-10-28T09:49:27.055Z,76.51
2022-10-28T09:50:27.069Z,74.77
2022-10-28T09:51:27.058Z,75.57
2022-10-28T09:52:27.026Z,75.07
2022-10-28T09:53:27.038Z,75.07
2022-10-28T09:54:26.997Z,74.97
2022-10-28T09:55:27.076Z,73.83
2022-10-28T09:56:26.988Z,74.73
2022-10-28T09:57:27.008Z,74.20
2022-10-28T09:58:26.960Z,73.39
2022-10-28T09:59:26.938Z,72.76
2022-10-28T10:00:26.953Z,72.46
2022-10-28T10:01:26.978Z,71.23
2022-10-28T10:02:26.977Z,71.39
2022-10-28T10:03:26.900Z,70.79
2022-10-28T10:04:26.892Z,69.66
2022-10-28T10:05:27.050Z,69.53
2022-10-28T10:06:26.874Z,69.82
2022-10-28T10:07:26.908Z,69.32
2022-10-28T10:08:26.862Z,69.53
2022-10-28T10:09:26.836Z,69.13
2022-10-28T10:10:26.846Z,69.73
2022-10-28T10:11:26.826Z,69.62
2022-10-28T10:12:26.805Z,69.79
2022-10-28T10:13:26.815Z,70.42
2022-10-28T10:14:26.871Z,69.82
2022-10-28T10:15:26.778Z,70.89
2022-10-28T10:16:26.779Z,70.69
2022-10-28T10:17:26.751Z,69.59
2022-10-28T10:18:26.766Z,70.59
2022-10-28T10:19:26.747Z,70.69
2022-10-28T10:20:26.742Z,70.29
2022-10-28T10:21:26.749Z,69.39
2022-10-28T10:22:26.709Z,70.69
2022-10-28T10:23:26.829Z,69.76
2022-10-28T10:24:26.685Z,68.76
2022-10-28T10:25:26.690Z,68.73
2022-10-28T10:26:26.773Z,69.02
2022-10-28T10:27:26.653Z,69.53
2022-10-28T10:28:26.642Z,68.43
2022-10-28T10:29:26.635Z,69.49
2022-10-28T10:30:26.644Z,68.19
2022-10-28T10:31:26.611Z,68.49
2022-10-28T10:32:26.685Z,67.10
2022-10-28T10:33:26.601Z,66.27
2022-10-28T10:34:26.587Z,67.17
2022-10-28T10:35:26.589Z,66.90
2022-10-28T10:36:26.555Z,67.60
2022-10-28T10:37:26.567Z,67.20
2022-10-28T10:38:26.539Z,67.30
2022-10-28T10:39:26.528Z,67.50
2022-10-28T10:40:26.538Z,66.90
2022-10-28T10:41:26.513Z,68.40
2022-10-28T10:42:26.505Z,67.90
2022-10-28T10:43:26.494Z,67.80
2022-10-28T10:44:26.473Z,68.10
2022-10-28T10:45:26.484Z,68.19
2022-10-28T10:46:26.454Z,68.00
2022-10-28T10:47:26.453Z,68.19
2022-10-28T10:48:26.439Z,68.43
2022-10-28T10:49:26.435Z,67.73
2022-10-28T10:50:26.459Z,68.43
2022-10-28T10:51:26.404Z,67.53
2022-10-28T10:52:26.421Z,68.43
2022-10-28T10:53:26.388Z,68.13
2022-10-28T10:54:26.367Z,67.63
2022-10-28T10:55:26.378Z,67.63
2022-10-28T10:56:26.349Z,67.93
2022-10-28T10:57:26.348Z,68.43
2022-10-28T10:58:26.338Z,68.23
2022-10-28T10:59:26.329Z,68.03
2022-10-28T11:00:26.321Z,68.03
2022-10-28T11:01:26.482Z,69.02
2022-10-28T11:02:26.417Z,68.73
2022-10-28T11:03:26.284Z,69.92
2022-10-28T11:04:26.277Z,67.70
2022-10-28T11:05:29.260Z,69.20
2022-10-28T11:06:27.253Z,69.06
2022-10-28T11:07:26.244Z,67.36
2022-10-28T11:08:26.233Z,67.96
2022-10-28T11:09:26.224Z,67.57
2022-10-28T11:10:26.224Z,67.77
2022-10-28T11:11:26.196Z,66.97
2022-10-28T11:12:26.187Z,67.07
2022-10-28T11:13:26.180Z,66.77
2022-10-28T11:14:26.187Z,67.43
2022-10-28T11:15:26.170Z,67.24
2022-10-28T11:16:26.149Z,65.64
2022-10-28T11:17:26.201Z,67.03
2022-10-28T11:18:26.131Z,66.11
2022-10-28T11:19:26.121Z,66.53
2022-10-28T11:20:26.148Z,68.13
2022-10-28T11:21:26.122Z,66.83
2022-10-28T11:22:26.101Z,67.57
2022-10-28T11:23:26.092Z,67.07
2022-10-28T11:24:26.075Z,67.60
2022-10-28T11:25:26.133Z,66.90
2022-10-28T11:26:26.052Z,67.20
2022-10-28T11:27:26.034Z,67.80
2022-10-28T11:28:26.033Z,67.93
2022-10-28T11:29:26.016Z,68.03
2022-10-28T11:30:26.030Z,68.03
2022-10-28T11:31:25.996Z,68.33
2022-10-28T11:32:25.986Z,68.76
2022-10-28T11:33:30.788Z,68.26
2022-10-28T11:34:26.976Z,68.46
2022-10-28T11:35:26.027Z,68.96
2022-10-28T11:36:25.938Z,68.56
2022-10-28T11:37:25.931Z,69.76
2022-10-28T11:38:25.922Z,68.66
2022-10-28T11:39:25.901Z,68.83
2022-10-28T11:40:25.912Z,67.93
2022-10-28T11:41:25.882Z,68.33
2022-10-28T11:42:25.881Z,67.33
2022-10-28T11:43:25.873Z,68.13
2022-10-28T11:44:25.885Z,68.13
2022-10-28T11:45:25.853Z,67.33
2022-10-28T11:46:25.844Z,68.43
2022-10-28T11:47:25.829Z,67.90
2022-10-28T11:48:25.816Z,66.80
2022-10-28T11:49:25.808Z,67.50
2022-10-28T11:50:25.814Z,66.40
2022-10-28T11:51:25.775Z,66.77
2022-10-28T11:52:25.791Z,67.66
2022-10-28T11:53:25.759Z,66.27
2022-10-28T11:54:25.748Z,66.57
2022-10-28T11:55:25.757Z,67.43
2022-10-28T11:56:25.741Z,66.14
2022-10-28T11:57:25.712Z,65.84
2022-10-28T11:58:25.740Z,67.10
2022-10-28T11:59:25.699Z,66.41
2022-10-28T12:00:25.733Z,65.38
2022-10-28T12:01:25.723Z,65.48
2022-10-28T12:02:25.743Z,63.85
2022-10-28T12:03:25.785Z,62.83
2022-10-28T12:04:25.664Z,60.02
2022-10-28T12:05:25.644Z,58.90
2022-10-28T12:06:25.634Z,58.87
2022-10-28T12:07:25.614Z,59.36
2022-10-28T12:08:25.606Z,59.83
2022-10-28T12:09:25.590Z,58.64
2022-10-28T12:10:25.596Z,57.03
2022-10-28T12:11:25.580Z,56.53
2022-10-28T12:12:25.569Z,56.23
2022-10-28T12:13:25.549Z,56.43
2022-10-28T12:14:25.654Z,57.50
2022-10-28T12:15:25.544Z,56.01
2022-10-28T12:16:25.536Z,54.62
2022-10-28T12:17:25.520Z,55.32
2022-10-28T12:18:25.509Z,52.94
2022-10-28T12:19:25.492Z,55.32
2022-10-28T12:20:25.491Z,53.13
2022-10-28T12:21:25.570Z,54.52
2022-10-28T12:22:25.555Z,55.09
2022-10-28T12:23:25.454Z,55.58
2022-10-28T12:24:25.475Z,54.49
2022-10-28T12:25:25.445Z,53.90
2022-10-28T12:26:25.426Z,55.61
2022-10-28T12:27:25.406Z,54.72
2022-10-28T12:28:25.408Z,55.98
2022-10-28T12:29:25.396Z,55.09
2022-10-28T12:30:25.596Z,54.60
2022-10-28T12:31:25.376Z,53.20
2022-10-28T12:32:25.552Z,53.70
2022-10-28T12:33:25.349Z,53.03
2022-10-28T12:34:25.640Z,53.06
2022-10-28T12:35:25.340Z,53.56
2022-10-28T12:36:25.389Z,53.68
2022-10-28T12:37:25.309Z,53.19
2022-10-28T12:38:25.610Z,53.68
2022-10-28T12:39:25.292Z,54.00
2022-10-28T12:40:25.313Z,53.41
2022-10-28T12:41:25.272Z,54.30
2022-10-28T12:42:25.262Z,53.01
2022-10-28T12:43:25.253Z,54.00
2022-10-28T12:44:25.326Z,54.70
2022-10-28T12:45:25.244Z,56.29
2022-10-28T12:46:26.085Z,55.29
2022-10-28T12:47:25.218Z,54.60
2022-10-28T12:48:25.198Z,54.30
2022-10-28T12:49:25.187Z,53.91
2022-10-28T12:50:25.208Z,55.10
2022-10-28T12:51:25.167Z,55.79
2022-10-28T12:52:25.173Z,55.89
2022-10-28T12:53:25.179Z,55.19